Time;durP1;ratioP1;P1;durP2;ratioP2;P2;SDS_P1;SDS_P2;PMS_P1;PMS_P2;Temp;Humidity;BMP_temperature;BMP_pressure;BME280_temperature;BME280_humidity;BME280_pressure;Samples;Min_cycle;Max_cycle;Signal;HPM_P1;HPM_P2
2022/03/20 12:56:18;;;;;;;2.13;1.97;;;;;;;;;;4809914;29;20238;-73
2022/03/20 12:58:47;;;;;;;1.53;1.43;;;;;;;;;;4857977;29;20578;-73
2022/03/20 13:01:15;;;;;;;3.83;2.97;;;;;;;;;;4857867;29;20199;-73
2022/03/20 13:03:42;;;;;;;5.10;3.60;;;;;;;;;;4857892;29;20203;-74
2022/03/20 13:06:10;;;;;;;0.17;0.17;;;;;;;;;;4857980;29;20684;-73
2022/03/20 13:08:38;;;;;;;5.00;3.23;;;;;;;;;;4864943;29;20256;-73
2022/03/20 13:11:48;;;;;;;3.27;2.43;;;;;;;;;;4894960;29;20205;-73
2022/03/20 13:14:02;;;;;;;1.33;1.33;;;;;;;;;;4894683;29;20644;-73
2022/03/20 13:16:29;;;;;;;0.43;0.43;;;;;;;;;;4895189;29;20209;-73
2022/03/20 13:18:57;;;;;;;0.00;0.00;;;;;;;;;;4894742;29;20236;-74
2022/03/20 13:21:25;;;;;;;2.10;1.53;;;;;;;;;;4894986;29;20211;-74
2022/03/20 13:23:53;;;;;;;0.40;0.13;;;;;;;;;;4894957;29;20663;-74
2022/03/20 13:26:22;;;;;;;1.20;0.83;;;;;;;;;;4898723;29;20618;-75
2022/03/20 13:28:50;;;;;;;5.33;4.33;;;;;;;;;;4915873;29;20688;-75
2022/03/20 13:31:18;;;;;;;5.10;2.93;;;;;;;;;;4915964;29;20271;-74
2022/03/20 13:33:52;;;;;;;7.07;3.87;;;;;;;;;;4916025;29;20239;-75
2022/03/20 13:36:20;;;;;;;0.00;0.00;;;;;;;;;;4916021;29;20200;-73
2022/03/20 13:38:50;;;;;;;3.27;3.00;;;;;;;;;;4915958;29;20231;-74
2022/03/20 13:41:19;;;;;;;1.50;1.40;;;;;;;;;;4915837;29;20204;-74
2022/03/20 13:43:48;;;;;;;0.47;0.43;;;;;;;;;;4915779;29;20503;-74
2022/03/20 13:46:18;;;;;;;4.63;2.43;;;;;;;;;;4916060;29;20212;-73
2022/03/20 13:48:46;;;;;;;6.80;6.10;;;;;;;;;;4915549;29;20231;-74
2022/03/20 13:51:13;;;;;;;2.63;2.47;;;;;;;;;;4915796;29;20201;-74
2022/03/20 13:53:42;;;;;;;9.33;4.43;;;;;;;;;;4915657;29;20239;-75
2022/03/20 13:56:25;;;;;;;2.23;2.13;;;;;;;;;;4916407;29;20211;-75
2022/03/20 13:59:05;;;;;;;8.90;5.60;;;;;;;;;;4934425;29;20239;-81
2022/03/20 14:01:33;;;;;;;0.23;0.23;;;;;;;;;;4934642;29;20600;-76
2022/03/20 14:04:10;;;;;;;1.50;1.50;;;;;;;;;;4934617;29;20232;-75
2022/03/20 14:06:39;;;;;;;7.90;5.37;;;;;;;;;;4934601;29;20286;-74
2022/03/20 14:09:07;;;;;;;2.03;1.90;;;;;;;;;;4934439;29;20199;-75
2022/03/20 14:11:36;;;;;;;8.93;5.27;;;;;;;;;;4935918;29;20311;-74
2022/03/20 14:14:06;;;;;;;7.10;4.77;;;;;;;;;;4953508;29;20205;-74
2022/03/20 14:16:34;;;;;;;5.33;4.83;;;;;;;;;;4953350;29;20199;-74
2022/03/20 14:19:04;;;;;;;5.60;5.07;;;;;;;;;;4953207;29;20239;-75
2022/03/20 14:21:32;;;;;;;9.93;6.67;;;;;;;;;;4954798;28;20210;-74
2022/03/20 14:24:02;;;;;;;8.00;6.27;;;;;;;;;;4957259;29;20289;-74
2022/03/20 14:26:31;;;;;;;7.27;4.73;;;;;;;;;;4957315;29;20207;-75
2022/03/20 14:29:03;;;;;;;8.13;4.87;;;;;;;;;;4957019;29;20302;-73
2022/03/20 14:39:48;;;;;;;3.33;2.83;;;;;;;;;;4956788;29;20596;-74
2022/03/20 14:42:26;;;;;;;4.27;2.90;;;;;;;;;;4956805;29;20231;-75
2022/03/20 14:44:53;;;;;;;0.37;0.37;;;;;;;;;;4956487;29;20667;-74
2022/03/20 14:47:25;;;;;;;7.47;4.80;;;;;;;;;;4956706;29;20199;-73
2022/03/20 14:49:53;;;;;;;4.80;3.37;;;;;;;;;;4956613;29;20203;-73
2022/03/20 14:52:21;;;;;;;2.60;2.13;;;;;;;;;;4956933;29;20619;-73
2022/03/20 14:54:52;;;;;;;6.33;3.13;;;;;;;;;;4956559;29;20230;-75
2022/03/20 14:57:20;;;;;;;2.97;2.77;;;;;;;;;;4963948;28;20636;-76
2022/03/20 14:59:49;;;;;;;5.07;3.63;;;;;;;;;;4975610;28;20234;-74
2022/03/20 15:02:17;;;;;;;9.10;5.30;;;;;;;;;;4975694;28;20241;-74
2022/03/20 15:04:49;;;;;;;2.00;1.90;;;;;;;;;;4971424;28;20249;-75
2022/03/20 15:07:17;;;;;;;6.23;5.77;;;;;;;;;;4954940;28;20265;-74
2022/03/20 15:12:30;;;;;;;4.87;4.53;;;;;;;;;;4975392;28;20245;-74
2022/03/20 15:14:59;;;;;;;5.30;4.50;;;;;;;;;;4975194;28;20202;-74
2022/03/20 15:17:26;;;;;;;5.77;5.27;;;;;;;;;;4975384;28;20301;-74
2022/03/20 15:19:56;;;;;;;2.70;2.50;;;;;;;;;;4975556;28;20351;-74
2022/03/20 15:22:24;;;;;;;2.53;1.80;;;;;;;;;;4975425;28;20199;-72
2022/03/20 15:24:55;;;;;;;5.53;4.20;;;;;;;;;;4975085;28;20202;-72
2022/03/20 15:27:23;;;;;;;3.23;2.97;;;;;;;;;;4975217;28;20249;-73
2022/03/20 15:29:51;;;;;;;1.00;1.00;;;;;;;;;;4963178;28;20203;-71
2022/03/20 15:32:18;;;;;;;2.40;2.30;;;;;;;;;;4952353;28;20676;-71
2022/03/20 15:34:46;;;;;;;6.23;4.33;;;;;;;;;;4954641;29;20198;-72
2022/03/20 15:37:16;;;;;;;6.83;3.30;;;;;;;;;;4955419;29;20199;-73
2022/03/20 15:39:44;;;;;;;2.50;2.23;;;;;;;;;;4955577;29;20273;-73
2022/03/20 15:42:11;;;;;;;4.53;3.87;;;;;;;;;;4955986;29;20623;-73
2022/03/20 15:44:39;;;;;;;6.67;5.40;;;;;;;;;;4955404;29;20203;-74
2022/03/20 15:47:07;;;;;;;5.17;4.67;;;;;;;;;;4965476;28;20205;-74
2022/03/20 15:49:35;;;;;;;4.67;4.13;;;;;;;;;;4967387;29;20192;-75
2022/03/20 15:52:03;;;;;;;7.07;4.70;;;;;;;;;;4955550;29;20290;-73
2022/03/20 15:54:32;;;;;;;3.87;3.57;;;;;;;;;;4955852;29;20230;-74
2022/03/20 15:56:59;;;;;;;9.13;5.60;;;;;;;;;;4955256;29;20241;-73
2022/03/20 15:59:27;;;;;;;5.37;4.87;;;;;;;;;;4955484;28;20278;-75
2022/03/20 16:01:55;;;;;;;1.17;0.50;;;;;;;;;;4970936;28;20190;-74
2022/03/20 16:04:25;;;;;;;1.30;1.07;;;;;;;;;;4972336;29;20199;-71
2022/03/20 16:06:58;;;;;;;7.07;4.80;;;;;;;;;;4972930;29;20203;-74
2022/03/20 16:09:25;;;;;;;3.53;2.77;;;;;;;;;;4962014;29;20246;-74
2022/03/20 16:11:54;;;;;;;6.87;3.63;;;;;;;;;;4955129;29;20286;-73
2022/03/20 16:14:22;;;;;;;3.37;3.10;;;;;;;;;;4955346;28;20648;-73
2022/03/20 16:16:50;;;;;;;4.97;3.63;;;;;;;;;;4955064;29;20595;-74
2022/03/20 16:19:17;;;;;;;2.57;2.47;;;;;;;;;;4955165;29;20238;-74
2022/03/20 16:21:45;;;;;;;6.33;4.93;;;;;;;;;;4955353;29;20195;-75
2022/03/20 16:29:44;;;;;;;4.53;3.37;;;;;;;;;;4955043;29;20206;-72
2022/03/20 16:32:13;;;;;;;1.20;1.20;;;;;;;;;;4954888;29;20679;-75
2022/03/20 16:34:41;;;;;;;0.97;0.57;;;;;;;;;;4954825;29;20207;-72
2022/03/20 16:37:09;;;;;;;0.67;0.67;;;;;;;;;;4955092;29;20195;-73
2022/03/20 16:39:37;;;;;;;2.47;1.93;;;;;;;;;;4954823;29;20227;-75
2022/03/20 16:42:07;;;;;;;0.40;0.40;;;;;;;;;;4954694;29;20207;-76
2022/03/20 16:44:35;;;;;;;4.20;3.67;;;;;;;;;;4953843;28;20246;-73
2022/03/20 16:47:04;;;;;;;3.63;2.83;;;;;;;;;;4954678;29;20294;-76
2022/03/20 16:49:32;;;;;;;6.20;3.73;;;;;;;;;;4954528;29;20191;-75
2022/03/20 16:52:00;;;;;;;0.50;0.50;;;;;;;;;;4954726;29;20227;-76
2022/03/20 16:54:28;;;;;;;7.30;4.50;;;;;;;;;;4954479;29;20203;-75
2022/03/20 16:56:55;;;;;;;3.77;3.47;;;;;;;;;;4954018;29;20247;-75
2022/03/20 16:59:24;;;;;;;8.07;4.27;;;;;;;;;;4954611;29;20237;-75
2022/03/20 17:01:51;;;;;;;0.77;0.77;;;;;;;;;;4954395;29;20291;-76
2022/03/20 17:04:19;;;;;;;2.43;1.70;;;;;;;;;;4954412;29;20557;-75
2022/03/20 17:06:46;;;;;;;10.43;5.20;;;;;;;;;;4954343;28;20285;-75
2022/03/20 17:09:14;;;;;;;9.23;4.87;;;;;;;;;;4954214;29;20691;-77
2022/03/20 17:11:42;;;;;;;0.50;0.50;;;;;;;;;;4954289;29;20206;-75
2022/03/20 17:14:12;;;;;;;4.17;1.70;;;;;;;;;;4954549;29;20191;-75
2022/03/20 17:16:42;;;;;;;0.57;0.57;;;;;;;;;;4954285;29;20269;-75
2022/03/20 17:19:10;;;;;;;0.60;0.57;;;;;;;;;;4954272;29;20229;-75
2022/03/20 17:21:42;;;;;;;0.30;0.30;;;;;;;;;;4954255;29;20290;-75
2022/03/20 17:24:09;;;;;;;0.00;0.00;;;;;;;;;;4954214;29;20195;-76
2022/03/20 17:26:37;;;;;;;0.00;0.00;;;;;;;;;;4953926;29;20195;-76
2022/03/20 17:29:05;;;;;;;0.10;0.10;;;;;;;;;;4953927;29;20280;-76
2022/03/20 17:31:32;;;;;;;5.53;1.37;;;;;;;;;;4954176;28;20242;-76
2022/03/20 17:34:01;;;;;;;0.57;0.57;;;;;;;;;;4953953;29;20210;-74
2022/03/20 17:36:29;;;;;;;2.40;2.17;;;;;;;;;;4954023;29;20660;-74
2022/03/20 17:38:57;;;;;;;1.03;1.03;;;;;;;;;;4954368;29;20197;-72
2022/03/20 17:41:25;;;;;;;3.60;3.40;;;;;;;;;;4953871;29;20281;-74
2022/03/20 17:43:54;;;;;;;0.20;0.20;;;;;;;;;;4954251;29;20550;-73
2022/03/20 17:46:21;;;;;;;0.00;0.00;;;;;;;;;;4953893;29;20656;-74
2022/03/20 17:48:49;;;;;;;0.00;0.00;;;;;;;;;;4953687;29;20199;-75
2022/03/20 17:51:18;;;;;;;0.00;0.00;;;;;;;;;;4953838;29;20668;-71
2022/03/20 17:53:46;;;;;;;0.37;0.37;;;;;;;;;;4954296;29;20203;-72
2022/03/20 17:56:15;;;;;;;0.43;0.43;;;;;;;;;;4956488;28;20191;-73
2022/03/20 17:58:43;;;;;;;1.80;1.70;;;;;;;;;;4957504;29;20230;-73
2022/03/20 18:01:11;;;;;;;0.00;0.00;;;;;;;;;;4957475;29;20229;-73
2022/03/20 18:09:09;;;;;;;3.30;3.10;;;;;;;;;;4957742;29;20202;-72
2022/03/20 18:11:37;;;;;;;0.00;0.00;;;;;;;;;;4957713;29;20206;-73
2022/03/20 18:14:04;;;;;;;0.00;0.00;;;;;;;;;;4959326;29;20711;-74
2022/03/20 18:16:32;;;;;;;9.53;4.23;;;;;;;;;;4957805;29;20656;-73
2022/03/20 18:18:59;;;;;;;0.00;0.00;;;;;;;;;;4958057;29;20667;-73
2022/03/20 18:21:28;;;;;;;0.73;0.73;;;;;;;;;;4957339;29;20231;-73
2022/03/20 18:23:56;;;;;;;0.00;0.00;;;;;;;;;;4957274;28;20273;-73
2022/03/20 18:26:24;;;;;;;0.00;0.00;;;;;;;;;;4957137;29;20199;-72
2022/03/20 18:28:52;;;;;;;0.63;0.63;;;;;;;;;;4957371;29;20250;-73
2022/03/20 18:31:19;;;;;;;0.20;0.20;;;;;;;;;;4956905;29;20203;-73
2022/03/20 18:33:47;;;;;;;1.03;1.03;;;;;;;;;;4957231;29;20197;-72
2022/03/20 18:36:14;;;;;;;0.30;0.30;;;;;;;;;;4957396;28;20195;-73
2022/03/20 18:38:43;;;;;;;0.00;0.00;;;;;;;;;;4957022;29;20231;-72
2022/03/20 18:41:11;;;;;;;0.47;0.47;;;;;;;;;;4957179;29;20252;-72
2022/03/20 18:43:38;;;;;;;0.77;0.77;;;;;;;;;;4957165;29;20206;-71
2022/03/20 18:46:06;;;;;;;0.10;0.10;;;;;;;;;;4956920;29;20201;-72
2022/03/20 18:48:34;;;;;;;0.00;0.00;;;;;;;;;;4956728;29;20281;-73
2022/03/20 18:51:02;;;;;;;0.07;0.07;;;;;;;;;;4957087;29;20201;-73
2022/03/20 18:53:30;;;;;;;0.00;0.00;;;;;;;;;;4956764;29;20195;-74
2022/03/20 18:56:02;;;;;;;0.00;0.00;;;;;;;;;;4956668;29;20604;-72
2022/03/20 18:58:30;;;;;;;0.00;0.00;;;;;;;;;;4956523;29;20309;-73
2022/03/20 19:00:57;;;;;;;0.10;0.10;;;;;;;;;;4956580;29;20231;-73
2022/03/20 19:03:26;;;;;;;0.00;0.00;;;;;;;;;;4956742;29;20227;-73
2022/03/20 19:05:54;;;;;;;0.13;0.13;;;;;;;;;;4956347;29;20199;-73
2022/03/20 19:08:21;;;;;;;0.00;0.00;;;;;;;;;;4955989;28;20660;-73
2022/03/20 19:10:49;;;;;;;0.00;0.00;;;;;;;;;;4956136;29;20294;-72
2022/03/20 19:13:19;;;;;;;0.13;0.13;;;;;;;;;;4956858;29;20593;-73
2022/03/20 19:15:47;;;;;;;0.00;0.00;;;;;;;;;;4956419;29;20735;-73
2022/03/20 19:18:15;;;;;;;0.63;0.50;;;;;;;;;;4956290;29;20195;-74
2022/03/20 19:20:44;;;;;;;0.57;0.57;;;;;;;;;;4956021;29;20233;-73
2022/03/20 19:23:11;;;;;;;4.27;1.17;;;;;;;;;;4956480;29;20254;-73
2022/03/20 19:25:38;;;;;;;0.00;0.00;;;;;;;;;;4956111;29;20205;-73
2022/03/20 19:28:06;;;;;;;0.00;0.00;;;;;;;;;;4956223;29;20194;-73
2022/03/20 19:30:35;;;;;;;0.00;0.00;;;;;;;;;;4955982;29;20195;-73
2022/03/20 19:33:02;;;;;;;1.07;0.93;;;;;;;;;;4955930;29;20206;-73
2022/03/20 19:41:00;;;;;;;3.17;2.97;;;;;;;;;;4956055;29;20233;-73
2022/03/20 19:43:28;;;;;;;0.00;0.00;;;;;;;;;;4955891;29;20191;-76
2022/03/20 19:45:57;;;;;;;0.00;0.00;;;;;;;;;;4955754;28;20246;-73
2022/03/20 19:48:25;;;;;;;1.33;1.23;;;;;;;;;;4955613;29;20195;-73
2022/03/20 19:50:56;;;;;;;0.00;0.00;;;;;;;;;;4955503;29;20191;-72
2022/03/20 19:53:26;;;;;;;0.00;0.00;;;;;;;;;;4955789;29;20205;-72
2022/03/20 19:55:53;;;;;;;0.00;0.00;;;;;;;;;;4955772;29;20258;-72
2022/03/20 19:58:21;;;;;;;0.47;0.47;;;;;;;;;;4955630;29;20679;-73
2022/03/20 20:00:49;;;;;;;0.00;0.00;;;;;;;;;;4955491;28;20227;-72
2022/03/20 20:03:19;;;;;;;0.00;0.00;;;;;;;;;;4955765;29;20214;-72
2022/03/20 20:05:46;;;;;;;0.23;0.23;;;;;;;;;;4955444;28;20238;-73
2022/03/20 20:08:15;;;;;;;0.00;0.00;;;;;;;;;;4955448;29;20203;-73
2022/03/20 20:10:42;;;;;;;0.00;0.00;;;;;;;;;;4955124;29;20199;-72
2022/03/20 20:15:55;;;;;;;0.00;0.00;;;;;;;;;;4955348;29;20563;-73
2022/03/20 20:18:24;;;;;;;3.97;3.70;;;;;;;;;;4954647;28;20198;-73
2022/03/20 20:20:51;;;;;;;0.00;0.00;;;;;;;;;;4954565;29;20231;-72
2022/03/20 20:23:19;;;;;;;0.00;0.00;;;;;;;;;;4955448;29;20278;-73
2022/03/20 20:25:47;;;;;;;0.07;0.07;;;;;;;;;;4955078;29;20192;-72
2022/03/20 20:28:14;;;;;;;1.43;1.43;;;;;;;;;;4954947;29;20206;-72
2022/03/20 20:30:44;;;;;;;0.00;0.00;;;;;;;;;;4954632;29;20290;-73
2022/03/20 20:33:11;;;;;;;0.03;0.03;;;;;;;;;;4954939;29;20719;-73
2022/03/20 20:35:40;;;;;;;0.00;0.00;;;;;;;;;;4954856;29;20195;-72
2022/03/20 20:38:09;;;;;;;0.00;0.00;;;;;;;;;;4954876;29;20195;-72
2022/03/20 20:40:37;;;;;;;0.00;0.00;;;;;;;;;;4954709;29;20234;-72
2022/03/20 20:43:04;;;;;;;0.27;0.27;;;;;;;;;;4954830;28;20191;-72
2022/03/20 20:45:32;;;;;;;0.00;0.00;;;;;;;;;;4954775;28;20195;-71
2022/03/20 20:48:00;;;;;;;0.97;0.97;;;;;;;;;;4954743;29;20207;-72
2022/03/20 20:50:27;;;;;;;0.63;0.63;;;;;;;;;;4954879;29;20222;-72
2022/03/20 20:52:56;;;;;;;0.00;0.00;;;;;;;;;;4954549;29;20228;-73
2022/03/20 20:55:23;;;;;;;0.00;0.00;;;;;;;;;;4954851;29;20668;-72
2022/03/20 20:57:51;;;;;;;0.00;0.00;;;;;;;;;;4954744;29;20253;-72
2022/03/20 21:00:19;;;;;;;0.00;0.00;;;;;;;;;;4954470;29;20198;-73
2022/03/20 21:02:46;;;;;;;0.07;0.07;;;;;;;;;;4954214;29;20194;-72
2022/03/20 21:05:14;;;;;;;1.17;1.17;;;;;;;;;;4954568;29;20195;-72
2022/03/20 21:13:14;;;;;;;1.07;1.03;;;;;;;;;;4954375;29;20266;-73
2022/03/20 21:15:42;;;;;;;0.00;0.00;;;;;;;;;;4954252;29;20230;-73
2022/03/20 21:18:10;;;;;;;2.40;2.30;;;;;;;;;;4954233;29;20638;-72
2022/03/20 21:20:38;;;;;;;0.37;0.37;;;;;;;;;;4954095;28;20227;-73
2022/03/20 21:23:06;;;;;;;0.00;0.00;;;;;;;;;;4954187;28;20190;-72
2022/03/20 21:25:35;;;;;;;0.00;0.00;;;;;;;;;;4954203;29;20194;-72
2022/03/20 21:28:03;;;;;;;0.00;0.00;;;;;;;;;;4954329;29;20195;-72
2022/03/20 21:30:31;;;;;;;0.00;0.00;;;;;;;;;;4953957;29;20238;-72
2022/03/20 21:32:59;;;;;;;0.07;0.07;;;;;;;;;;4954319;29;20245;-71
2022/03/20 21:35:27;;;;;;;0.00;0.00;;;;;;;;;;4954088;29;20546;-72
2022/03/20 21:37:55;;;;;;;0.07;0.07;;;;;;;;;;4954119;29;20230;-72
2022/03/20 21:40:22;;;;;;;0.00;0.00;;;;;;;;;;4953991;29;20686;-71
2022/03/20 21:42:51;;;;;;;0.00;0.00;;;;;;;;;;4954002;29;20210;-73
2022/03/20 21:45:19;;;;;;;0.00;0.00;;;;;;;;;;4953948;29;20191;-73
2022/03/20 21:47:46;;;;;;;0.00;0.00;;;;;;;;;;4954007;29;20201;-72
2022/03/20 21:50:15;;;;;;;0.00;0.00;;;;;;;;;;4954132;29;20231;-73
2022/03/20 21:52:43;;;;;;;0.43;0.43;;;;;;;;;;4953771;29;20257;-72
2022/03/20 21:55:11;;;;;;;0.00;0.00;;;;;;;;;;4954168;28;20330;-72
2022/03/20 21:57:39;;;;;;;1.23;1.13;;;;;;;;;;4953992;29;20241;-72
2022/03/20 22:00:12;;;;;;;0.00;0.00;;;;;;;;;;4953947;29;20202;-72
2022/03/20 22:02:39;;;;;;;0.00;0.00;;;;;;;;;;4953719;28;20332;-74
2022/03/20 22:05:07;;;;;;;0.00;0.00;;;;;;;;;;4953756;29;20202;-72
2022/03/20 22:07:35;;;;;;;0.00;0.00;;;;;;;;;;4954027;28;20195;-73
2022/03/20 22:10:03;;;;;;;0.57;0.53;;;;;;;;;;4954114;29;20289;-72
2022/03/20 22:12:30;;;;;;;0.00;0.00;;;;;;;;;;4953755;29;20206;-72
2022/03/20 22:14:58;;;;;;;0.00;0.00;;;;;;;;;;4953949;29;20246;-72
2022/03/20 22:17:28;;;;;;;0.30;0.30;;;;;;;;;;4953702;29;20196;-71
2022/03/20 22:19:55;;;;;;;0.00;0.00;;;;;;;;;;4953721;29;20603;-71
2022/03/20 22:22:23;;;;;;;0.00;0.00;;;;;;;;;;4953518;29;20231;-72
2022/03/20 22:24:51;;;;;;;0.30;0.30;;;;;;;;;;4953301;29;20347;-72
2022/03/20 22:27:19;;;;;;;0.00;0.00;;;;;;;;;;4953780;29;20208;-72
2022/03/20 22:29:46;;;;;;;0.00;0.00;;;;;;;;;;4953633;29;20205;-72
2022/03/20 22:32:15;;;;;;;0.00;0.00;;;;;;;;;;4953549;29;20557;-73
2022/03/20 22:37:39;;;;;;;0.47;0.47;;;;;;;;;;4953451;29;20222;-72
2022/03/20 22:37:40;;;;;;;0.00;0.00;;;;;;;;;;4953437;29;20266;-72
2022/03/20 22:40:09;;;;;;;0.00;0.00;;;;;;;;;;4953552;29;20660;-72
2022/03/20 22:42:36;;;;;;;0.10;0.10;;;;;;;;;;4954872;28;20278;-73
2022/03/20 22:45:04;;;;;;;0.10;0.10;;;;;;;;;;4957123;28;20648;-72
2022/03/20 22:47:32;;;;;;;0.37;0.37;;;;;;;;;;4956815;28;20690;-71
2022/03/20 22:50:03;;;;;;;10.93;6.80;;;;;;;;;;4956838;29;20704;-73
2022/03/20 22:52:31;;;;;;;0.00;0.00;;;;;;;;;;4956874;29;20209;-73
2022/03/20 22:54:58;;;;;;;0.57;0.53;;;;;;;;;;4956793;29;20230;-72
2022/03/20 22:57:27;;;;;;;2.67;2.47;;;;;;;;;;4956322;29;20237;-72
2022/03/20 22:59:54;;;;;;;0.10;0.10;;;;;;;;;;4956631;29;20206;-71
2022/03/20 23:02:22;;;;;;;0.00;0.00;;;;;;;;;;4956721;29;20584;-71
2022/03/20 23:04:49;;;;;;;0.40;0.40;;;;;;;;;;4956328;29;20195;-73
2022/03/20 23:07:18;;;;;;;0.00;0.00;;;;;;;;;;4956488;29;20656;-73
2022/03/20 23:09:46;;;;;;;0.00;0.00;;;;;;;;;;4956517;29;20303;-73
2022/03/20 23:12:14;;;;;;;0.50;0.50;;;;;;;;;;4956611;29;20600;-73
2022/03/20 23:14:42;;;;;;;0.00;0.00;;;;;;;;;;4956248;29;20210;-72
2022/03/20 23:17:10;;;;;;;0.00;0.00;;;;;;;;;;4956333;29;20191;-73
2022/03/20 23:19:38;;;;;;;0.00;0.00;;;;;;;;;;4956606;29;20225;-72
2022/03/20 23:22:08;;;;;;;0.83;0.83;;;;;;;;;;4956152;29;20222;-73
2022/03/20 23:24:37;;;;;;;0.10;0.10;;;;;;;;;;4956223;29;20278;-73
2022/03/20 23:27:05;;;;;;;0.07;0.07;;;;;;;;;;4956103;29;20191;-72
2022/03/20 23:29:33;;;;;;;0.00;0.00;;;;;;;;;;4956160;29;20191;-72
2022/03/20 23:32:00;;;;;;;0.00;0.00;;;;;;;;;;4956055;29;20199;-73
2022/03/20 23:34:28;;;;;;;0.20;0.20;;;;;;;;;;4956086;29;20195;-72
2022/03/20 23:36:56;;;;;;;0.07;0.07;;;;;;;;;;4955689;29;20199;-73
2022/03/20 23:39:23;;;;;;;0.10;0.10;;;;;;;;;;4955920;29;20195;-73
2022/03/20 23:44:37;;;;;;;0.27;0.27;;;;;;;;;;4955759;29;20218;-74
2022/03/20 23:47:05;;;;;;;0.10;0.10;;;;;;;;;;4955797;29;20195;-71
2022/03/20 23:49:33;;;;;;;0.00;0.00;;;;;;;;;;4955739;29;20643;-73
2022/03/20 23:52:00;;;;;;;0.93;0.93;;;;;;;;;;4955495;29;20674;-72
2022/03/20 23:54:27;;;;;;;0.50;0.50;;;;;;;;;;4955657;28;20206;-73
2022/03/20 23:56:56;;;;;;;0.00;0.00;;;;;;;;;;4955336;29;20245;-71
2022/03/20 23:59:24;;;;;;;2.27;1.80;;;;;;;;;;4955542;29;20195;-73
